createdAt,value
2022-09-09T00:00:50.114Z,15.70
2022-09-09T00:03:26.702Z,15.70
2022-09-09T00:06:10.068Z,15.70
2022-09-09T00:08:49.205Z,15.70
2022-09-09T00:11:22.160Z,15.70
2022-09-09T00:13:53.588Z,15.70
2022-09-09T00:16:28.270Z,15.70
2022-09-09T00:19:36.584Z,15.70
2022-09-09T00:22:17.433Z,15.70
2022-09-09T00:25:01.576Z,15.60
2022-09-09T00:27:38.872Z,15.60
2022-09-09T00:30:20.386Z,15.60
2022-09-09T00:32:48.669Z,15.60
2022-09-09T00:35:30.941Z,15.50
2022-09-09T00:38:03.400Z,15.50
2022-09-09T00:40:36.269Z,15.40
2022-09-09T00:43:20.219Z,15.30
2022-09-09T00:46:12.721Z,15.30
2022-09-09T00:49:00.791Z,15.20
2022-09-09T00:51:44.638Z,15.20
2022-09-09T00:54:19.532Z,15.20
2022-09-09T00:57:29.170Z,15.10
2022-09-09T01:00:23.808Z,15.10
2022-09-09T01:03:35.445Z,15.10
2022-09-09T01:06:16.715Z,15.00
2022-09-09T01:08:58.656Z,15.00
2022-09-09T01:11:30.631Z,15.00
2022-09-09T01:14:12.651Z,14.90
2022-09-09T01:16:39.951Z,14.90
2022-09-09T01:19:11.767Z,15.00
2022-09-09T01:22:16.993Z,15.00
2022-09-09T01:25:08.106Z,15.10
2022-09-09T01:27:37.173Z,15.10
2022-09-09T01:30:10.734Z,15.20
2022-09-09T01:32:51.258Z,15.10
2022-09-09T01:35:42.864Z,15.10
2022-09-09T01:38:09.822Z,15.10
2022-09-09T01:40:37.131Z,15.10
2022-09-09T01:43:04.892Z,15.00
2022-09-09T01:45:32.115Z,15.00
2022-09-09T01:48:00.260Z,15.10
2022-09-09T01:50:27.079Z,15.20
2022-09-09T01:52:58.418Z,15.20
2022-09-09T01:55:32.312Z,15.30
2022-09-09T01:57:58.857Z,15.30
2022-09-09T02:00:25.733Z,15.30
2022-09-09T02:03:01.179Z,15.30
2022-09-09T02:06:04.944Z,15.40
2022-09-09T02:08:40.151Z,15.30
2022-09-09T02:11:12.379Z,15.20
2022-09-09T02:13:39.944Z,15.20
2022-09-09T02:16:11.520Z,15.10
2022-09-09T02:19:00.474Z,15.00
2022-09-09T02:21:32.447Z,14.90
2022-09-09T02:24:05.357Z,14.90
2022-09-09T02:26:34.803Z,14.90
2022-09-09T02:29:04.054Z,14.90
2022-09-09T02:31:32.525Z,14.90
2022-09-09T02:34:02.564Z,14.90
2022-09-09T02:36:34.228Z,14.90
2022-09-09T02:39:01.655Z,15.00
2022-09-09T02:41:37.494Z,15.00
2022-09-09T02:44:12.110Z,15.10
2022-09-09T02:47:13.848Z,15.10
2022-09-09T02:49:44.116Z,15.10
2022-09-09T02:52:26.829Z,15.00
2022-09-09T02:55:00.739Z,14.90
2022-09-09T02:57:30.963Z,14.80
2022-09-09T02:59:59.148Z,14.80
2022-09-09T03:02:26.461Z,14.90
2022-09-09T03:04:53.572Z,15.00
2022-09-09T03:07:21.060Z,15.00
2022-09-09T03:09:47.799Z,15.10
2022-09-09T03:12:14.575Z,15.00
2022-09-09T03:14:41.373Z,14.90
2022-09-09T03:17:08.071Z,15.00
2022-09-09T03:19:36.167Z,15.00
2022-09-09T03:22:02.798Z,15.00
2022-09-09T03:24:29.361Z,15.00
2022-09-09T03:26:56.918Z,15.10
2022-09-09T03:29:23.523Z,15.10
2022-09-09T03:31:51.499Z,15.20
2022-09-09T03:34:18.176Z,15.20
2022-09-09T03:36:44.798Z,15.30
2022-09-09T03:39:11.732Z,15.30
2022-09-09T03:41:38.345Z,15.30
2022-09-09T03:44:05.046Z,15.40
2022-09-09T03:46:32.304Z,15.40
2022-09-09T03:48:59.273Z,15.40
2022-09-09T03:51:25.850Z,15.30
2022-09-09T03:53:52.570Z,15.30
2022-09-09T03:56:19.135Z,15.30
2022-09-09T03:58:45.832Z,15.40
2022-09-09T04:01:14.584Z,15.40
2022-09-09T04:03:42.098Z,15.30
2022-09-09T04:06:11.726Z,15.40
2022-09-09T04:08:39.723Z,15.30
2022-09-09T04:11:07.536Z,15.20
2022-09-09T04:13:35.816Z,15.20
2022-09-09T04:16:04.686Z,15.20
2022-09-09T04:18:32.354Z,15.20
2022-09-09T04:20:59.383Z,15.20
2022-09-09T04:23:29.374Z,15.20
2022-09-09T04:25:57.859Z,15.20
2022-09-09T04:28:26.699Z,15.30
2022-09-09T04:30:53.390Z,15.30
2022-09-09T04:33:20.393Z,15.40
2022-09-09T04:35:49.317Z,15.30
2022-09-09T04:38:17.348Z,15.40
2022-09-09T04:40:47.614Z,15.40
2022-09-09T04:43:15.668Z,15.30
2022-09-09T04:45:43.792Z,15.30
2022-09-09T04:48:10.651Z,15.30
2022-09-09T04:50:37.400Z,15.20
2022-09-09T04:53:05.951Z,15.20
2022-09-09T04:55:33.344Z,15.20
2022-09-09T04:58:07.112Z,15.20
2022-09-09T05:00:36.283Z,15.20
2022-09-09T05:03:06.943Z,15.20
2022-09-09T05:05:37.476Z,15.20
2022-09-09T05:08:06.224Z,15.20
2022-09-09T05:10:34.347Z,15.20
2022-09-09T05:13:01.156Z,15.20
2022-09-09T05:15:27.826Z,15.20
2022-09-09T05:17:59.506Z,15.10
2022-09-09T05:20:26.183Z,15.00
2022-09-09T05:22:57.311Z,15.00
2022-09-09T05:25:26.892Z,15.00
2022-09-09T05:27:54.682Z,15.00
2022-09-09T05:30:23.698Z,15.00
2022-09-09T05:32:50.320Z,15.00
2022-09-09T05:35:18.774Z,15.00
2022-09-09T05:37:46.898Z,15.00
2022-09-09T05:40:13.814Z,15.00
2022-09-09T05:42:40.691Z,15.00
2022-09-09T05:45:08.796Z,15.00
2022-09-09T05:47:36.474Z,15.00
2022-09-09T05:50:03.300Z,15.00
2022-09-09T05:52:29.946Z,15.10
2022-09-09T05:54:57.840Z,15.20
2022-09-09T05:57:24.456Z,15.30
2022-09-09T05:59:51.379Z,15.30
2022-09-09T06:02:18.123Z,15.40
2022-09-09T06:04:44.954Z,15.50
2022-09-09T06:07:11.682Z,15.50
2022-09-09T06:09:38.284Z,15.50
2022-09-09T06:12:05.211Z,15.50
2022-09-09T06:14:31.868Z,15.50
2022-09-09T06:16:58.523Z,15.50
2022-09-09T06:19:27.748Z,15.50
2022-09-09T06:21:54.417Z,15.50
2022-09-09T06:24:21.060Z,15.60
2022-09-09T06:26:47.655Z,15.60
2022-09-09T06:29:14.266Z,15.70
2022-09-09T06:31:42.204Z,15.70
2022-09-09T06:34:09.707Z,15.70
2022-09-09T06:36:39.058Z,15.80
2022-09-09T06:39:12.152Z,15.80
2022-09-09T06:41:41.498Z,15.90
2022-09-09T06:44:08.063Z,15.90
2022-09-09T06:46:36.516Z,16.00
2022-09-09T06:49:03.650Z,16.00
2022-09-09T06:51:36.344Z,15.90
2022-09-09T06:54:04.421Z,16.00
2022-09-09T06:56:33.978Z,15.90
2022-09-09T06:59:04.678Z,16.00
2022-09-09T07:01:33.869Z,15.90
2022-09-09T07:04:01.504Z,16.00
2022-09-09T07:06:30.261Z,16.00
2022-09-09T07:08:59.880Z,16.00
2022-09-09T07:11:29.611Z,16.10
2022-09-09T07:13:58.241Z,16.20
2022-09-09T07:16:25.641Z,16.20
2022-09-09T07:18:58.908Z,16.20
2022-09-09T07:21:27.674Z,16.20
2022-09-09T07:23:55.495Z,16.20
2022-09-09T07:26:25.174Z,16.30
2022-09-09T07:28:52.220Z,16.30
2022-09-09T07:31:27.713Z,16.40
2022-09-09T07:33:54.679Z,16.50
2022-09-09T07:36:24.286Z,16.50
2022-09-09T07:38:57.572Z,16.60
2022-09-09T07:41:35.110Z,16.70
2022-09-09T07:44:07.421Z,16.90
2022-09-09T07:46:35.178Z,17.00
2022-09-09T07:49:03.176Z,17.00
2022-09-09T07:51:32.148Z,17.20
2022-09-09T07:54:02.805Z,17.30
2022-09-09T07:56:30.528Z,17.40
2022-09-09T07:58:59.548Z,17.50
2022-09-09T08:01:32.501Z,17.50
2022-09-09T08:04:02.113Z,17.60
2022-09-09T08:06:38.130Z,17.60
2022-09-09T08:09:06.555Z,17.70
2022-09-09T08:11:38.583Z,17.70
2022-09-09T08:14:08.498Z,17.70
2022-09-09T08:16:38.248Z,17.70
2022-09-09T08:19:07.372Z,17.60
2022-09-09T08:21:37.451Z,17.50
2022-09-09T08:24:05.983Z,17.50
2022-09-09T08:26:38.227Z,17.40
2022-09-09T08:29:07.561Z,17.40
2022-09-09T08:31:39.962Z,17.30
2022-09-09T08:34:08.229Z,17.20
2022-09-09T08:36:38.805Z,17.00
2022-09-09T08:39:07.827Z,16.90
2022-09-09T08:41:54.684Z,16.90
2022-09-09T08:44:49.112Z,16.90
2022-09-09T08:47:34.271Z,16.80
2022-09-09T08:50:25.650Z,16.70
2022-09-09T08:53:09.357Z,16.80
2022-09-09T08:55:45.571Z,16.90
2022-09-09T08:58:21.318Z,16.90
2022-09-09T09:01:22.940Z,16.90
2022-09-09T09:04:07.811Z,17.00
2022-09-09T09:07:02.189Z,17.10
2022-09-09T09:09:51.538Z,17.10
2022-09-09T09:12:24.576Z,17.30
2022-09-09T09:14:51.549Z,17.30
2022-09-09T09:17:24.344Z,17.40
2022-09-09T09:19:51.390Z,17.40
2022-09-09T09:22:33.798Z,17.50
2022-09-09T09:25:19.032Z,17.60
2022-09-09T09:28:01.593Z,17.70
2022-09-09T09:30:37.183Z,17.70
2022-09-09T09:33:15.237Z,17.80
2022-09-09T09:35:44.381Z,17.80
2022-09-09T09:41:06.253Z,17.90
2022-09-09T09:43:35.920Z,17.90
2022-09-09T09:46:17.749Z,18.10
2022-09-09T09:48:47.178Z,18.10
2022-09-09T09:51:23.877Z,18.20
2022-09-09T09:53:50.600Z,18.20
2022-09-09T09:56:17.294Z,18.30
2022-09-09T09:58:50.611Z,18.30
2022-09-09T10:01:28.650Z,18.40
2022-09-09T10:03:59.573Z,18.40
2022-09-09T10:06:34.767Z,18.50
2022-09-09T10:09:03.816Z,18.70
2022-09-09T10:11:53.530Z,18.80
2022-09-09T10:14:40.616Z,18.80
2022-09-09T10:17:28.090Z,18.80
2022-09-09T10:20:28.990Z,18.90
2022-09-09T10:23:16.688Z,18.90
2022-09-09T10:25:59.562Z,18.90
2022-09-09T10:28:38.376Z,18.90
2022-09-09T10:31:50.078Z,18.90
2022-09-09T10:34:46.020Z,18.90
2022-09-09T10:37:37.730Z,18.90
2022-09-09T10:40:13.923Z,18.90
2022-09-09T10:42:41.648Z,19.00
2022-09-09T10:45:17.068Z,19.00
2022-09-09T10:47:51.019Z,19.10
2022-09-09T10:51:11.465Z,19.20
2022-09-09T10:53:58.052Z,19.20
2022-09-09T10:56:26.317Z,19.30
2022-09-09T10:59:13.191Z,19.40
2022-09-09T11:02:11.535Z,19.60
2022-09-09T11:04:51.798Z,19.60
2022-09-09T11:07:34.220Z,19.60
2022-09-09T11:10:25.171Z,19.50
2022-09-09T11:12:56.488Z,19.60
2022-09-09T11:15:37.127Z,19.50
2022-09-09T11:18:07.044Z,19.50
2022-09-09T11:20:34.034Z,19.60
2022-09-09T11:23:17.176Z,19.70
2022-09-09T11:25:49.318Z,19.70
2022-09-09T11:28:27.740Z,19.80
2022-09-09T11:31:12.963Z,19.90
2022-09-09T11:33:50.114Z,19.90
2022-09-09T11:37:01.490Z,20.00
2022-09-09T11:39:31.209Z,20.00
2022-09-09T11:42:14.532Z,19.90
2022-09-09T11:44:42.798Z,19.90
2022-09-09T11:47:27.569Z,20.00
2022-09-09T11:49:55.291Z,20.20
2022-09-09T11:52:46.712Z,20.30
2022-09-09T11:55:30.420Z,20.50
2022-09-09T11:58:03.029Z,20.60
2022-09-09T12:00:45.221Z,20.70
2022-09-09T12:03:49.489Z,20.70
2022-09-09T12:06:21.843Z,20.70
2022-09-09T12:08:54.279Z,20.70
2022-09-09T12:11:31.833Z,20.70
2022-09-09T12:14:01.860Z,20.70
2022-09-09T12:16:37.378Z,20.60
2022-09-09T12:19:06.979Z,20.70
2022-09-09T12:22:04.488Z,20.70
2022-09-09T12:24:37.559Z,20.60
2022-09-09T12:27:23.366Z,20.70
2022-09-09T12:30:03.403Z,20.80
2022-09-09T12:32:30.976Z,20.80
2022-09-09T12:35:10.675Z,20.80
2022-09-09T12:37:54.884Z,20.80
2022-09-09T12:40:36.302Z,20.80
2022-09-09T12:43:17.858Z,20.90
2022-09-09T12:45:46.388Z,21.00
2022-09-09T12:48:16.583Z,21.10
2022-09-09T12:50:54.142Z,21.00
2022-09-09T12:53:36.359Z,21.00
2022-09-09T12:56:10.997Z,21.10
2022-09-09T12:58:39.186Z,21.10
2022-09-09T13:01:07.100Z,21.10
2022-09-09T13:03:43.698Z,21.10
2022-09-09T13:06:22.205Z,21.20
2022-09-09T13:08:55.565Z,21.20
2022-09-09T13:11:37.588Z,21.20
2022-09-09T13:14:05.295Z,21.20
2022-09-09T13:16:37.811Z,21.20
2022-09-09T13:19:11.341Z,21.20
2022-09-09T13:21:40.418Z,21.20
2022-09-09T13:24:24.922Z,21.20
2022-09-09T13:26:59.782Z,21.30
2022-09-09T13:29:26.726Z,21.20
2022-09-09T13:31:54.651Z,21.20
2022-09-09T13:34:33.326Z,21.30
2022-09-09T13:37:16.113Z,21.20
2022-09-09T13:39:54.053Z,21.20
2022-09-09T13:42:28.339Z,21.20
2022-09-09T13:44:56.637Z,21.10
2022-09-09T13:47:32.978Z,21.30
2022-09-09T13:49:59.915Z,21.20
2022-09-09T13:52:28.276Z,21.20
2022-09-09T13:54:55.264Z,21.30
2022-09-09T13:57:26.004Z,21.20
2022-09-09T14:00:11.014Z,21.30
2022-09-09T14:02:39.621Z,21.30
2022-09-09T14:05:06.617Z,21.40
2022-09-09T14:07:33.245Z,21.40
2022-09-09T14:10:01.016Z,21.40
2022-09-09T14:12:27.904Z,21.30
2022-09-09T14:14:54.562Z,21.30
2022-09-09T14:17:21.158Z,21.30
2022-09-09T14:19:47.998Z,21.30
2022-09-09T14:22:15.019Z,21.40
2022-09-09T14:24:41.868Z,21.40
2022-09-09T14:27:08.465Z,21.40
2022-09-09T14:29:35.051Z,21.40
2022-09-09T14:32:01.905Z,21.40
2022-09-09T14:34:28.548Z,21.40
2022-09-09T14:36:55.180Z,21.50
2022-09-09T14:39:21.771Z,21.60
2022-09-09T14:41:48.377Z,21.50
2022-09-09T14:44:15.135Z,21.50
2022-09-09T14:46:43.308Z,21.50
2022-09-09T14:49:11.252Z,21.50
2022-09-09T14:51:37.946Z,21.50
2022-09-09T14:54:04.671Z,21.50
2022-09-09T14:56:35.455Z,21.50
2022-09-09T14:59:02.933Z,21.50
2022-09-09T15:01:30.621Z,21.60
2022-09-09T15:04:02.938Z,21.50
2022-09-09T15:06:32.736Z,21.50
2022-09-09T15:08:59.781Z,21.50
2022-09-09T15:11:32.940Z,21.50
2022-09-09T15:13:59.846Z,21.40
2022-09-09T15:16:28.940Z,21.40
2022-09-09T15:18:57.912Z,21.40
2022-09-09T15:21:27.490Z,21.30
2022-09-09T15:23:54.489Z,21.20
2022-09-09T15:26:21.784Z,21.20
2022-09-09T15:28:50.560Z,21.30
2022-09-09T15:31:20.205Z,21.30
2022-09-09T15:33:51.610Z,21.30
2022-09-09T15:36:19.626Z,21.30
2022-09-09T15:38:46.399Z,21.30
2022-09-09T15:41:17.111Z,21.40
2022-09-09T15:43:49.661Z,21.30
2022-09-09T15:46:29.367Z,21.40
2022-09-09T15:48:58.840Z,21.40
2022-09-09T15:51:43.684Z,21.30
2022-09-09T15:54:17.622Z,21.40
2022-09-09T15:56:45.260Z,21.30
2022-09-09T15:59:12.298Z,21.30
2022-09-09T16:01:40.454Z,21.20
2022-09-09T16:04:07.344Z,21.10
2022-09-09T16:06:34.236Z,21.00
2022-09-09T16:09:03.414Z,20.90
2022-09-09T16:11:32.876Z,20.80
2022-09-09T16:14:00.529Z,20.70
2022-09-09T16:16:29.442Z,20.60
2022-09-09T16:18:58.694Z,20.60
2022-09-09T16:21:30.894Z,20.50
2022-09-09T16:24:00.359Z,20.50
2022-09-09T16:26:31.780Z,20.40
2022-09-09T16:28:59.725Z,20.40
2022-09-09T16:31:28.081Z,20.30
2022-09-09T16:33:55.066Z,20.20
2022-09-09T16:36:24.724Z,20.10
2022-09-09T16:38:59.501Z,20.10
2022-09-09T16:41:31.072Z,20.00
2022-09-09T16:44:00.224Z,19.90
2022-09-09T16:46:28.686Z,19.90
2022-09-09T16:48:58.746Z,19.90
2022-09-09T16:51:28.414Z,19.60
2022-09-09T16:53:56.023Z,19.40
2022-09-09T16:56:27.560Z,19.30
2022-09-09T16:58:56.525Z,19.00
2022-09-09T17:01:28.939Z,19.10
2022-09-09T17:04:01.896Z,19.00
2022-09-09T17:06:30.560Z,18.90
2022-09-09T17:08:58.780Z,18.90
2022-09-09T17:11:26.147Z,18.80
2022-09-09T17:13:57.764Z,18.80
2022-09-09T17:16:28.246Z,18.80
2022-09-09T17:18:56.715Z,18.80
2022-09-09T17:21:26.383Z,18.70
2022-09-09T17:23:54.812Z,18.70
2022-09-09T17:26:23.437Z,18.70
2022-09-09T17:28:50.238Z,18.70
2022-09-09T17:31:18.880Z,18.70
2022-09-09T17:33:47.559Z,18.60
2022-09-09T17:36:19.892Z,18.70
2022-09-09T17:38:47.811Z,18.60
2022-09-09T17:41:28.996Z,18.60
2022-09-09T17:43:56.110Z,18.60
2022-09-09T17:46:25.843Z,18.60
2022-09-09T17:48:57.092Z,18.50
2022-09-09T17:51:26.049Z,18.50
2022-09-09T17:53:59.220Z,18.40
2022-09-09T17:56:29.156Z,18.40
2022-09-09T17:58:55.735Z,18.40
2022-09-09T18:01:28.364Z,18.20
2022-09-09T18:03:59.095Z,18.10
2022-09-09T18:06:29.080Z,18.10
2022-09-09T18:08:58.491Z,18.00
2022-09-09T18:11:28.455Z,17.90
2022-09-09T18:13:58.457Z,17.90
2022-09-09T18:16:32.224Z,17.90
2022-09-09T18:18:59.426Z,17.80
2022-09-09T18:21:27.493Z,17.90
2022-09-09T18:23:54.317Z,17.90
2022-09-09T18:26:24.326Z,18.00
2022-09-09T18:28:53.153Z,18.00
2022-09-09T18:31:23.526Z,18.00
2022-09-09T18:33:53.110Z,18.00
2022-09-09T18:36:31.165Z,18.00
2022-09-09T18:39:03.173Z,18.00
2022-09-09T18:41:32.745Z,17.90
2022-09-09T18:44:02.335Z,17.90
2022-09-09T18:46:31.433Z,17.90
2022-09-09T18:48:58.245Z,17.90
2022-09-09T18:51:27.972Z,17.80
2022-09-09T18:54:01.172Z,17.80
2022-09-09T18:56:29.550Z,17.70
2022-09-09T18:59:01.723Z,17.70
2022-09-09T19:01:29.136Z,17.70
2022-09-09T19:03:56.946Z,17.70
2022-09-09T19:06:28.299Z,17.70
2022-09-09T19:09:04.131Z,17.70
2022-09-09T19:11:32.731Z,17.60
2022-09-09T19:14:04.360Z,17.60
2022-09-09T19:16:33.719Z,17.70
2022-09-09T19:19:02.969Z,17.60
2022-09-09T19:21:33.378Z,17.60
2022-09-09T19:24:01.096Z,17.60
2022-09-09T19:26:30.285Z,17.60
2022-09-09T19:28:58.803Z,17.60
2022-09-09T19:31:27.855Z,17.60
2022-09-09T19:33:58.150Z,17.60
2022-09-09T19:36:27.787Z,17.60
2022-09-09T19:38:55.291Z,17.50
2022-09-09T19:41:25.853Z,17.50
2022-09-09T19:43:57.310Z,17.60
2022-09-09T19:46:23.978Z,17.50
2022-09-09T19:48:50.709Z,17.40
2022-09-09T19:51:19.565Z,17.50
2022-09-09T19:53:51.586Z,17.20
2022-09-09T19:56:19.604Z,17.20
2022-09-09T19:58:47.447Z,17.10
2022-09-09T20:01:21.124Z,17.00
2022-09-09T20:03:52.505Z,16.90
2022-09-09T20:06:21.159Z,17.00
2022-09-09T20:08:48.798Z,16.70
2022-09-09T20:11:17.132Z,16.60
2022-09-09T20:13:44.348Z,16.60
2022-09-09T20:16:16.793Z,16.60
2022-09-09T20:18:46.078Z,16.50
2022-09-09T20:21:16.120Z,16.30
2022-09-09T20:23:44.020Z,16.20
2022-09-09T20:26:12.963Z,16.20
2022-09-09T20:28:41.145Z,16.20
2022-09-09T20:31:11.819Z,16.20
2022-09-09T20:33:39.531Z,16.30
2022-09-09T20:36:14.577Z,16.20
2022-09-09T20:38:47.030Z,16.20
2022-09-09T20:41:15.348Z,16.00
2022-09-09T20:44:04.320Z,15.90
2022-09-09T20:46:33.901Z,15.80
2022-09-09T20:49:03.073Z,15.80
2022-09-09T20:51:32.999Z,15.90
2022-09-09T20:54:05.453Z,15.90
2022-09-09T20:56:38.476Z,16.00
2022-09-09T20:59:07.192Z,16.00
2022-09-09T21:01:34.177Z,16.10
2022-09-09T21:04:00.851Z,16.10
2022-09-09T21:06:27.550Z,16.10
2022-09-09T21:08:54.280Z,16.10
2022-09-09T21:11:20.976Z,16.10
2022-09-09T21:13:47.610Z,16.10
2022-09-09T21:16:19.335Z,16.10
2022-09-09T21:18:46.041Z,16.00
2022-09-09T21:21:13.222Z,15.90
2022-09-09T21:23:39.895Z,15.90
2022-09-09T21:26:07.534Z,15.70
2022-09-09T21:28:35.873Z,15.60
2022-09-09T21:31:04.076Z,15.60
2022-09-09T21:33:32.679Z,15.40
2022-09-09T21:36:04.751Z,15.50
2022-09-09T21:38:31.721Z,15.50
2022-09-09T21:41:03.024Z,15.60
2022-09-09T21:43:29.732Z,15.50
2022-09-09T21:45:56.679Z,15.50
2022-09-09T21:48:26.345Z,15.30
2022-09-09T21:50:54.045Z,15.40
2022-09-09T21:53:21.471Z,15.40
2022-09-09T21:55:48.964Z,15.40
2022-09-09T21:58:16.572Z,15.40
2022-09-09T22:00:45.624Z,15.50
2022-09-09T22:03:13.925Z,15.40
2022-09-09T22:05:45.288Z,15.30
2022-09-09T22:08:14.038Z,15.20
2022-09-09T22:10:42.457Z,15.20
2022-09-09T22:13:09.045Z,15.30
2022-09-09T22:15:36.569Z,15.20
2022-09-09T22:18:04.151Z,15.20
2022-09-09T22:20:39.498Z,15.20
2022-09-09T22:23:06.174Z,15.20
2022-09-09T22:25:35.091Z,15.10
2022-09-09T22:28:03.297Z,15.10
2022-09-09T22:30:29.945Z,15.00
2022-09-09T22:32:57.301Z,15.00
2022-09-09T22:35:24.443Z,15.00
2022-09-09T22:37:51.233Z,15.00
2022-09-09T22:40:17.906Z,15.00
2022-09-09T22:42:45.930Z,15.10
2022-09-09T22:45:14.194Z,15.10
2022-09-09T22:47:42.652Z,15.10
2022-09-09T22:50:10.049Z,15.20
2022-09-09T22:52:36.986Z,15.20
2022-09-09T22:55:03.776Z,15.30
2022-09-09T22:57:31.076Z,15.30
2022-09-09T22:59:57.648Z,15.30
2022-09-09T23:02:26.350Z,15.30
2022-09-09T23:04:52.980Z,15.30
2022-09-09T23:07:20.502Z,15.30
2022-09-09T23:09:47.708Z,15.30
2022-09-09T23:12:14.878Z,15.30
2022-09-09T23:14:41.620Z,15.20
2022-09-09T23:17:08.671Z,15.20
2022-09-09T23:19:37.047Z,15.20
2022-09-09T23:22:03.789Z,15.10
2022-09-09T23:24:30.374Z,15.00
2022-09-09T23:26:56.963Z,15.10
2022-09-09T23:29:23.644Z,15.10
2022-09-09T23:31:50.404Z,15.10
2022-09-09T23:34:17.909Z,15.00
2022-09-09T23:36:44.647Z,15.00
2022-09-09T23:39:13.100Z,15.00
2022-09-09T23:41:40.188Z,15.10
2022-09-09T23:44:07.410Z,15.00
2022-09-09T23:46:35.098Z,15.00
2022-09-09T23:49:02.507Z,15.00
2022-09-09T23:51:31.126Z,15.00
2022-09-09T23:54:00.280Z,14.90
2022-09-09T23:56:31.249Z,14.90
2022-09-09T23:58:58.135Z,15.00
